sensor_id;sensor_type;location;lat;lon;timestamp;pressure;altitude;pressure_sealevel;temperature;humidity
69153;BME280;56261;51.580;4.578;2023-04-20T00:00:58;102432.78;;;6.65;100.00
69153;BME280;56261;51.580;4.578;2023-04-20T00:03:23;102450.25;;;6.68;98.38
69153;BME280;56261;51.580;4.578;2023-04-20T00:05:50;102437.75;;;6.70;98.53
69153;BME280;56261;51.580;4.578;2023-04-20T00:08:16;102447.94;;;6.63;99.75
69153;BME280;56261;51.580;4.578;2023-04-20T00:10:45;102432.34;;;6.59;98.80
69153;BME280;56261;51.580;4.578;2023-04-20T00:13:10;102436.56;;;6.61;97.42
69153;BME280;56261;51.580;4.578;2023-04-20T00:15:36;102432.53;;;6.56;97.55
69153;BME280;56261;51.580;4.578;2023-04-20T00:18:02;102434.34;;;6.68;96.57
69153;BME280;56261;51.580;4.578;2023-04-20T00:20:27;102423.00;;;6.66;95.45
69153;BME280;56261;51.580;4.578;2023-04-20T00:22:53;102428.72;;;6.60;96.25
69153;BME280;56261;51.580;4.578;2023-04-20T00:25:19;102405.50;;;6.51;95.69
69153;BME280;56261;51.580;4.578;2023-04-20T00:27:44;102415.69;;;6.57;95.17
69153;BME280;56261;51.580;4.578;2023-04-20T00:30:10;102425.84;;;6.50;96.33
69153;BME280;56261;51.580;4.578;2023-04-20T00:32:36;102420.75;;;6.47;97.93
69153;BME280;56261;51.580;4.578;2023-04-20T00:35:01;102412.03;;;6.45;98.20
69153;BME280;56261;51.580;4.578;2023-04-20T00:37:27;102411.84;;;6.48;98.85
69153;BME280;56261;51.580;4.578;2023-04-20T00:39:53;102406.97;;;6.42;100.00
69153;BME280;56261;51.580;4.578;2023-04-20T00:42:18;102413.50;;;6.23;100.00
69153;BME280;56261;51.580;4.578;2023-04-20T00:44:44;102410.84;;;6.23;100.00
69153;BME280;56261;51.580;4.578;2023-04-20T00:47:09;102410.44;;;6.30;100.00
69153;BME280;56261;51.580;4.578;2023-04-20T00:49:35;102406.94;;;6.29;100.00
69153;BME280;56261;51.580;4.578;2023-04-20T00:52:00;102409.34;;;6.19;100.00
69153;BME280;56261;51.580;4.578;2023-04-20T00:54:27;102404.69;;;6.10;100.00
69153;BME280;56261;51.580;4.578;2023-04-20T00:56:53;102402.91;;;6.23;100.00
69153;BME280;56261;51.580;4.578;2023-04-20T00:59:20;102398.75;;;6.19;100.00
69153;BME280;56261;51.580;4.578;2023-04-20T01:01:46;102403.31;;;6.17;100.00
69153;BME280;56261;51.580;4.578;2023-04-20T01:04:12;102404.72;;;6.23;100.00
69153;BME280;56261;51.580;4.578;2023-04-20T01:06:37;102403.72;;;6.11;100.00
69153;BME280;56261;51.580;4.578;2023-04-20T01:09:03;102398.97;;;6.16;100.00
69153;BME280;56261;51.580;4.578;2023-04-20T01:11:28;102395.88;;;6.10;100.00
69153;BME280;56261;51.580;4.578;2023-04-20T01:13:54;102395.16;;;5.93;100.00
69153;BME280;56261;51.580;4.578;2023-04-20T01:16:19;102393.72;;;6.02;100.00
69153;BME280;56261;51.580;4.578;2023-04-20T01:18:47;102386.19;;;5.96;100.00
69153;BME280;56261;51.580;4.578;2023-04-20T01:21:14;102382.69;;;5.95;100.00
69153;BME280;56261;51.580;4.578;2023-04-20T01:23:41;102380.03;;;5.95;100.00
69153;BME280;56261;51.580;4.578;2023-04-20T01:26:11;102376.75;;;5.92;100.00
69153;BME280;56261;51.580;4.578;2023-04-20T01:28:36;102373.34;;;5.90;100.00
69153;BME280;56261;51.580;4.578;2023-04-20T01:31:03;102368.13;;;5.88;100.00
69153;BME280;56261;51.580;4.578;2023-04-20T01:33:29;102364.19;;;5.81;100.00
69153;BME280;56261;51.580;4.578;2023-04-20T01:35:54;102361.84;;;5.76;100.00
69153;BME280;56261;51.580;4.578;2023-04-20T01:38:21;102360.72;;;5.80;100.00
69153;BME280;56261;51.580;4.578;2023-04-20T01:40:47;102352.59;;;5.69;100.00
69153;BME280;56261;51.580;4.578;2023-04-20T01:43:13;102359.81;;;5.67;100.00
69153;BME280;56261;51.580;4.578;2023-04-20T01:45:38;102346.91;;;5.75;100.00
69153;BME280;56261;51.580;4.578;2023-04-20T01:48:04;102348.34;;;5.67;100.00
69153;BME280;56261;51.580;4.578;2023-04-20T01:50:30;102354.00;;;5.75;100.00
69153;BME280;56261;51.580;4.578;2023-04-20T01:52:55;102343.66;;;5.85;100.00
69153;BME280;56261;51.580;4.578;2023-04-20T01:55:20;102334.50;;;5.76;100.00
69153;BME280;56261;51.580;4.578;2023-04-20T01:57:46;102344.94;;;5.65;100.00
69153;BME280;56261;51.580;4.578;2023-04-20T02:00:12;102330.44;;;5.57;100.00
69153;BME280;56261;51.580;4.578;2023-04-20T02:02:37;102335.38;;;5.76;100.00
69153;BME280;56261;51.580;4.578;2023-04-20T02:05:02;102336.28;;;5.90;100.00
69153;BME280;56261;51.580;4.578;2023-04-20T02:07:28;102325.31;;;5.81;100.00
69153;BME280;56261;51.580;4.578;2023-04-20T02:09:54;102327.53;;;5.75;100.00
69153;BME280;56261;51.580;4.578;2023-04-20T02:12:19;102314.59;;;5.70;100.00
69153;BME280;56261;51.580;4.578;2023-04-20T02:14:45;102316.84;;;5.89;100.00
69153;BME280;56261;51.580;4.578;2023-04-20T02:17:10;102324.72;;;5.91;100.00
69153;BME280;56261;51.580;4.578;2023-04-20T02:19:36;102314.66;;;5.83;100.00
69153;BME280;56261;51.580;4.578;2023-04-20T02:22:01;102322.47;;;5.85;100.00
69153;BME280;56261;51.580;4.578;2023-04-20T02:24:26;102306.75;;;5.69;100.00
69153;BME280;56261;51.580;4.578;2023-04-20T02:26:52;102303.22;;;5.55;100.00
69153;BME280;56261;51.580;4.578;2023-04-20T02:29:17;102297.31;;;5.65;100.00
69153;BME280;56261;51.580;4.578;2023-04-20T02:31:43;102291.78;;;5.55;100.00
69153;BME280;56261;51.580;4.578;2023-04-20T02:34:09;102295.50;;;5.52;100.00
69153;BME280;56261;51.580;4.578;2023-04-20T02:36:35;102285.50;;;5.43;100.00
69153;BME280;56261;51.580;4.578;2023-04-20T02:39:01;102287.25;;;5.30;100.00
69153;BME280;56261;51.580;4.578;2023-04-20T02:41:26;102282.72;;;5.32;100.00
69153;BME280;56261;51.580;4.578;2023-04-20T02:43:52;102271.00;;;5.36;100.00
69153;BME280;56261;51.580;4.578;2023-04-20T02:46:17;102274.56;;;5.35;100.00
69153;BME280;56261;51.580;4.578;2023-04-20T02:48:43;102271.38;;;5.30;100.00
69153;BME280;56261;51.580;4.578;2023-04-20T02:51:08;102268.94;;;5.27;100.00
69153;BME280;56261;51.580;4.578;2023-04-20T02:53:33;102257.78;;;5.36;100.00
69153;BME280;56261;51.580;4.578;2023-04-20T02:55:59;102259.44;;;5.37;100.00
69153;BME280;56261;51.580;4.578;2023-04-20T02:58:27;102250.91;;;5.46;100.00
69153;BME280;56261;51.580;4.578;2023-04-20T03:00:58;102253.91;;;5.54;100.00
69153;BME280;56261;51.580;4.578;2023-04-20T03:03:24;102259.22;;;5.67;100.00
69153;BME280;56261;51.580;4.578;2023-04-20T03:05:50;102251.41;;;5.78;100.00
69153;BME280;56261;51.580;4.578;2023-04-20T03:08:15;102257.47;;;5.80;100.00
69153;BME280;56261;51.580;4.578;2023-04-20T03:10:41;102249.88;;;6.01;100.00
69153;BME280;56261;51.580;4.578;2023-04-20T03:13:06;102253.78;;;5.96;100.00
69153;BME280;56261;51.580;4.578;2023-04-20T03:15:31;102240.78;;;6.06;100.00
69153;BME280;56261;51.580;4.578;2023-04-20T03:17:57;102241.06;;;6.39;100.00
69153;BME280;56261;51.580;4.578;2023-04-20T03:20:22;102235.88;;;6.51;100.00
69153;BME280;56261;51.580;4.578;2023-04-20T03:22:48;102235.03;;;6.50;100.00
69153;BME280;56261;51.580;4.578;2023-04-20T03:25:13;102231.91;;;6.56;100.00
69153;BME280;56261;51.580;4.578;2023-04-20T03:27:39;102224.84;;;6.44;100.00
69153;BME280;56261;51.580;4.578;2023-04-20T03:30:05;102219.84;;;6.52;100.00
69153;BME280;56261;51.580;4.578;2023-04-20T03:32:31;102220.88;;;6.62;100.00
69153;BME280;56261;51.580;4.578;2023-04-20T03:34:56;102223.66;;;6.61;100.00
69153;BME280;56261;51.580;4.578;2023-04-20T03:37:21;102225.97;;;6.65;100.00
69153;BME280;56261;51.580;4.578;2023-04-20T03:39:47;102227.66;;;6.67;100.00
69153;BME280;56261;51.580;4.578;2023-04-20T03:42:12;102229.25;;;6.69;100.00
69153;BME280;56261;51.580;4.578;2023-04-20T03:44:37;102224.38;;;6.63;100.00
69153;BME280;56261;51.580;4.578;2023-04-20T03:47:03;102232.13;;;6.66;100.00
69153;BME280;56261;51.580;4.578;2023-04-20T03:49:28;102229.13;;;6.71;100.00
69153;BME280;56261;51.580;4.578;2023-04-20T03:51:54;102214.75;;;6.62;100.00
69153;BME280;56261;51.580;4.578;2023-04-20T03:54:19;102216.66;;;6.60;100.00
69153;BME280;56261;51.580;4.578;2023-04-20T03:56:45;102219.53;;;6.57;100.00
69153;BME280;56261;51.580;4.578;2023-04-20T03:59:10;102218.19;;;6.75;100.00
69153;BME280;56261;51.580;4.578;2023-04-20T04:01:39;102206.69;;;6.88;100.00
69153;BME280;56261;51.580;4.578;2023-04-20T04:04:04;102207.22;;;6.93;100.00
69153;BME280;56261;51.580;4.578;2023-04-20T04:06:29;102206.66;;;7.00;100.00
69153;BME280;56261;51.580;4.578;2023-04-20T04:08:56;102192.66;;;6.98;100.00
69153;BME280;56261;51.580;4.578;2023-04-20T04:11:22;102190.91;;;7.10;100.00
69153;BME280;56261;51.580;4.578;2023-04-20T04:13:49;102196.88;;;7.25;100.00
69153;BME280;56261;51.580;4.578;2023-04-20T04:16:15;102189.16;;;7.22;100.00
69153;BME280;56261;51.580;4.578;2023-04-20T04:18:43;102189.06;;;7.23;100.00
69153;BME280;56261;51.580;4.578;2023-04-20T04:21:09;102176.28;;;7.28;100.00
69153;BME280;56261;51.580;4.578;2023-04-20T04:23:35;102183.16;;;7.31;100.00
69153;BME280;56261;51.580;4.578;2023-04-20T04:26:02;102171.84;;;7.40;100.00
69153;BME280;56261;51.580;4.578;2023-04-20T04:28:29;102165.94;;;7.37;100.00
69153;BME280;56261;51.580;4.578;2023-04-20T04:30:55;102165.06;;;7.36;100.00
69153;BME280;56261;51.580;4.578;2023-04-20T04:33:21;102163.78;;;7.42;100.00
69153;BME280;56261;51.580;4.578;2023-04-20T04:35:46;102161.34;;;7.39;100.00
69153;BME280;56261;51.580;4.578;2023-04-20T04:38:12;102170.53;;;7.46;100.00
69153;BME280;56261;51.580;4.578;2023-04-20T04:40:38;102160.41;;;7.51;100.00
69153;BME280;56261;51.580;4.578;2023-04-20T04:43:08;102164.63;;;7.54;100.00
69153;BME280;56261;51.580;4.578;2023-04-20T04:45:37;102162.25;;;7.62;100.00
69153;BME280;56261;51.580;4.578;2023-04-20T04:48:06;102150.66;;;7.63;100.00
69153;BME280;56261;51.580;4.578;2023-04-20T04:50:33;102152.75;;;7.71;100.00
69153;BME280;56261;51.580;4.578;2023-04-20T04:52:59;102153.56;;;7.71;100.00
69153;BME280;56261;51.580;4.578;2023-04-20T04:55:24;102157.31;;;7.68;100.00
69153;BME280;56261;51.580;4.578;2023-04-20T04:57:50;102146.91;;;7.65;100.00
69153;BME280;56261;51.580;4.578;2023-04-20T05:00:15;102143.41;;;7.65;100.00
69153;BME280;56261;51.580;4.578;2023-04-20T05:02:41;102138.94;;;7.65;100.00
69153;BME280;56261;51.580;4.578;2023-04-20T05:05:07;102132.78;;;7.65;100.00
69153;BME280;56261;51.580;4.578;2023-04-20T05:07:33;102127.50;;;7.76;100.00
69153;BME280;56261;51.580;4.578;2023-04-20T05:09:58;102118.56;;;7.66;100.00
69153;BME280;56261;51.580;4.578;2023-04-20T05:12:23;102116.28;;;7.73;100.00
69153;BME280;56261;51.580;4.578;2023-04-20T05:14:52;102109.28;;;7.72;100.00
69153;BME280;56261;51.580;4.578;2023-04-20T05:17:18;102107.09;;;7.65;100.00
69153;BME280;56261;51.580;4.578;2023-04-20T05:19:43;102106.03;;;7.68;100.00
69153;BME280;56261;51.580;4.578;2023-04-20T05:22:09;102093.81;;;7.65;100.00
69153;BME280;56261;51.580;4.578;2023-04-20T05:24:34;102101.41;;;7.59;100.00
69153;BME280;56261;51.580;4.578;2023-04-20T05:26:59;102098.53;;;7.62;100.00
69153;BME280;56261;51.580;4.578;2023-04-20T05:29:25;102090.22;;;7.66;100.00
69153;BME280;56261;51.580;4.578;2023-04-20T05:31:51;102099.00;;;7.67;100.00
69153;BME280;56261;51.580;4.578;2023-04-20T05:34:16;102077.41;;;7.60;100.00
69153;BME280;56261;51.580;4.578;2023-04-20T05:36:42;102096.47;;;7.65;100.00
69153;BME280;56261;51.580;4.578;2023-04-20T05:39:07;102085.84;;;7.65;100.00
69153;BME280;56261;51.580;4.578;2023-04-20T05:41:34;102085.00;;;7.65;100.00
69153;BME280;56261;51.580;4.578;2023-04-20T05:44:00;102092.88;;;7.66;100.00
69153;BME280;56261;51.580;4.578;2023-04-20T05:46:25;102095.88;;;7.73;100.00
69153;BME280;56261;51.580;4.578;2023-04-20T05:48:50;102093.22;;;7.73;100.00
69153;BME280;56261;51.580;4.578;2023-04-20T05:51:16;102094.91;;;7.74;100.00
69153;BME280;56261;51.580;4.578;2023-04-20T05:53:41;102090.56;;;7.62;100.00
69153;BME280;56261;51.580;4.578;2023-04-20T05:56:07;102092.13;;;7.76;100.00
69153;BME280;56261;51.580;4.578;2023-04-20T05:58:33;102096.47;;;7.77;100.00
69153;BME280;56261;51.580;4.578;2023-04-20T06:00:59;102090.94;;;7.68;100.00
69153;BME280;56261;51.580;4.578;2023-04-20T06:03:26;102086.00;;;7.75;100.00
69153;BME280;56261;51.580;4.578;2023-04-20T06:05:52;102087.56;;;7.78;100.00
69153;BME280;56261;51.580;4.578;2023-04-20T06:08:17;102085.00;;;7.76;100.00
69153;BME280;56261;51.580;4.578;2023-04-20T06:10:43;102071.00;;;7.85;100.00
69153;BME280;56261;51.580;4.578;2023-04-20T06:13:09;102077.66;;;7.80;100.00
69153;BME280;56261;51.580;4.578;2023-04-20T06:15:34;102082.50;;;7.86;100.00
69153;BME280;56261;51.580;4.578;2023-04-20T06:18:00;102075.94;;;7.79;100.00
69153;BME280;56261;51.580;4.578;2023-04-20T06:20:26;102079.31;;;7.92;100.00
69153;BME280;56261;51.580;4.578;2023-04-20T06:22:52;102079.09;;;7.84;100.00
69153;BME280;56261;51.580;4.578;2023-04-20T06:25:17;102074.63;;;7.84;100.00
69153;BME280;56261;51.580;4.578;2023-04-20T06:27:43;102075.22;;;7.88;100.00
69153;BME280;56261;51.580;4.578;2023-04-20T06:30:09;102070.63;;;7.90;100.00
69153;BME280;56261;51.580;4.578;2023-04-20T06:32:34;102065.09;;;7.82;100.00
69153;BME280;56261;51.580;4.578;2023-04-20T06:35:00;102054.22;;;7.85;100.00
69153;BME280;56261;51.580;4.578;2023-04-20T06:37:25;102058.59;;;7.86;100.00
69153;BME280;56261;51.580;4.578;2023-04-20T06:39:52;102041.88;;;8.06;100.00
69153;BME280;56261;51.580;4.578;2023-04-20T06:42:19;102046.47;;;8.16;100.00
69153;BME280;56261;51.580;4.578;2023-04-20T06:44:44;102025.66;;;8.21;100.00
69153;BME280;56261;51.580;4.578;2023-04-20T06:47:09;102034.69;;;8.41;100.00
69153;BME280;56261;51.580;4.578;2023-04-20T06:49:35;102021.50;;;8.39;100.00
69153;BME280;56261;51.580;4.578;2023-04-20T06:52:02;102027.91;;;8.48;100.00
69153;BME280;56261;51.580;4.578;2023-04-20T06:54:27;102023.13;;;8.63;100.00
69153;BME280;56261;51.580;4.578;2023-04-20T06:56:52;102024.75;;;8.75;100.00
69153;BME280;56261;51.580;4.578;2023-04-20T06:59:18;102016.84;;;8.64;100.00
69153;BME280;56261;51.580;4.578;2023-04-20T07:01:43;102020.09;;;8.67;100.00
69153;BME280;56261;51.580;4.578;2023-04-20T07:04:09;102020.88;;;8.79;100.00
69153;BME280;56261;51.580;4.578;2023-04-20T07:06:34;102022.50;;;8.91;100.00
69153;BME280;56261;51.580;4.578;2023-04-20T07:08:59;102015.94;;;9.17;100.00
69153;BME280;56261;51.580;4.578;2023-04-20T07:11:25;102023.47;;;9.63;100.00
69153;BME280;56261;51.580;4.578;2023-04-20T07:13:50;102030.56;;;9.22;100.00
69153;BME280;56261;51.580;4.578;2023-04-20T07:16:15;102023.59;;;9.10;100.00
69153;BME280;56261;51.580;4.578;2023-04-20T07:18:41;102027.78;;;9.03;100.00
69153;BME280;56261;51.580;4.578;2023-04-20T07:21:06;102036.84;;;9.00;100.00
69153;BME280;56261;51.580;4.578;2023-04-20T07:23:32;102042.31;;;8.99;100.00
69153;BME280;56261;51.580;4.578;2023-04-20T07:25:57;102027.09;;;9.62;100.00
69153;BME280;56261;51.580;4.578;2023-04-20T07:28:22;102007.25;;;9.76;100.00
69153;BME280;56261;51.580;4.578;2023-04-20T07:30:48;102021.63;;;9.33;100.00
69153;BME280;56261;51.580;4.578;2023-04-20T07:33:13;102022.28;;;9.25;100.00
69153;BME280;56261;51.580;4.578;2023-04-20T07:35:39;102014.81;;;9.19;100.00
69153;BME280;56261;51.580;4.578;2023-04-20T07:38:04;102019.81;;;9.33;100.00
69153;BME280;56261;51.580;4.578;2023-04-20T07:40:29;102016.53;;;9.20;100.00
69153;BME280;56261;51.580;4.578;2023-04-20T07:42:55;102014.31;;;9.25;100.00
69153;BME280;56261;51.580;4.578;2023-04-20T07:45:20;102018.13;;;9.32;100.00
69153;BME280;56261;51.580;4.578;2023-04-20T07:47:47;102022.22;;;9.37;100.00
69153;BME280;56261;51.580;4.578;2023-04-20T07:50:15;102023.00;;;9.27;100.00
69153;BME280;56261;51.580;4.578;2023-04-20T07:52:41;102017.19;;;9.43;100.00
69153;BME280;56261;51.580;4.578;2023-04-20T07:55:09;102016.28;;;9.33;100.00
69153;BME280;56261;51.580;4.578;2023-04-20T07:57:38;102015.16;;;9.26;100.00
69153;BME280;56261;51.580;4.578;2023-04-20T08:00:05;102013.00;;;9.20;100.00
69153;BME280;56261;51.580;4.578;2023-04-20T08:02:34;102015.75;;;9.29;100.00
69153;BME280;56261;51.580;4.578;2023-04-20T08:05:01;102027.25;;;9.40;100.00
69153;BME280;56261;51.580;4.578;2023-04-20T08:07:27;102018.25;;;9.31;100.00
69153;BME280;56261;51.580;4.578;2023-04-20T08:09:52;102019.69;;;9.35;100.00
69153;BME280;56261;51.580;4.578;2023-04-20T08:12:17;102013.72;;;9.22;100.00
69153;BME280;56261;51.580;4.578;2023-04-20T08:14:43;102018.19;;;9.42;100.00
69153;BME280;56261;51.580;4.578;2023-04-20T08:17:08;102017.28;;;9.32;100.00
69153;BME280;56261;51.580;4.578;2023-04-20T08:19:33;102017.47;;;9.40;100.00
69153;BME280;56261;51.580;4.578;2023-04-20T08:21:59;102014.84;;;9.50;100.00
69153;BME280;56261;51.580;4.578;2023-04-20T08:24:25;102001.53;;;9.50;100.00
69153;BME280;56261;51.580;4.578;2023-04-20T08:26:50;101997.97;;;9.70;100.00
69153;BME280;56261;51.580;4.578;2023-04-20T08:29:16;101992.44;;;9.62;100.00
69153;BME280;56261;51.580;4.578;2023-04-20T08:31:41;101993.34;;;9.42;100.00
69153;BME280;56261;51.580;4.578;2023-04-20T08:34:07;102006.47;;;9.54;100.00
69153;BME280;56261;51.580;4.578;2023-04-20T08:36:32;101983.47;;;9.23;100.00
69153;BME280;56261;51.580;4.578;2023-04-20T08:39:11;101999.81;;;9.39;100.00
69153;BME280;56261;51.580;4.578;2023-04-20T08:41:37;101991.03;;;9.18;100.00
69153;BME280;56261;51.580;4.578;2023-04-20T08:44:03;101986.94;;;9.13;100.00
69153;BME280;56261;51.580;4.578;2023-04-20T08:46:29;101998.13;;;8.86;100.00
69153;BME280;56261;51.580;4.578;2023-04-20T08:48:55;101986.94;;;8.71;100.00
69153;BME280;56261;51.580;4.578;2023-04-20T08:51:22;102000.63;;;8.67;100.00
69153;BME280;56261;51.580;4.578;2023-04-20T08:53:47;101990.34;;;8.30;100.00
69153;BME280;56261;51.580;4.578;2023-04-20T08:56:13;101985.56;;;8.24;100.00
69153;BME280;56261;51.580;4.578;2023-04-20T08:58:38;101988.66;;;8.40;100.00
69153;BME280;56261;51.580;4.578;2023-04-20T09:01:10;101986.28;;;8.58;100.00
69153;BME280;56261;51.580;4.578;2023-04-20T09:03:38;101985.41;;;8.69;100.00
69153;BME280;56261;51.580;4.578;2023-04-20T09:06:04;101984.44;;;8.91;100.00
69153;BME280;56261;51.580;4.578;2023-04-20T09:08:37;101985.75;;;9.06;100.00
69153;BME280;56261;51.580;4.578;2023-04-20T09:11:04;101989.66;;;8.60;100.00
69153;BME280;56261;51.580;4.578;2023-04-20T09:13:29;101993.09;;;8.72;100.00
69153;BME280;56261;51.580;4.578;2023-04-20T09:16:11;101988.47;;;8.21;100.00
69153;BME280;56261;51.580;4.578;2023-04-20T09:18:37;101992.31;;;8.17;100.00
69153;BME280;56261;51.580;4.578;2023-04-20T09:21:07;101986.28;;;8.58;100.00
69153;BME280;56261;51.580;4.578;2023-04-20T09:23:33;101972.66;;;8.51;100.00
69153;BME280;56261;51.580;4.578;2023-04-20T09:25:58;101973.94;;;8.57;100.00
69153;BME280;56261;51.580;4.578;2023-04-20T09:28:34;101966.13;;;8.77;100.00
69153;BME280;56261;51.580;4.578;2023-04-20T09:31:00;101972.00;;;8.59;100.00
69153;BME280;56261;51.580;4.578;2023-04-20T09:33:30;101966.13;;;8.77;100.00
69153;BME280;56261;51.580;4.578;2023-04-20T09:36:03;101969.13;;;8.62;100.00
69153;BME280;56261;51.580;4.578;2023-04-20T09:38:29;101961.53;;;8.58;100.00
69153;BME280;56261;51.580;4.578;2023-04-20T09:40:57;101962.44;;;9.20;100.00
69153;BME280;56261;51.580;4.578;2023-04-20T09:43:26;101951.47;;;9.13;100.00
69153;BME280;56261;51.580;4.578;2023-04-20T09:45:53;101955.44;;;9.59;100.00
69153;BME280;56261;51.580;4.578;2023-04-20T09:48:20;101960.00;;;9.78;100.00
69153;BME280;56261;51.580;4.578;2023-04-20T09:50:47;101954.56;;;10.28;100.00
69153;BME280;56261;51.580;4.578;2023-04-20T09:53:15;101959.09;;;10.57;100.00
69153;BME280;56261;51.580;4.578;2023-04-20T09:55:48;101957.25;;;10.18;100.00
69153;BME280;56261;51.580;4.578;2023-04-20T09:58:19;101955.41;;;10.58;100.00
69153;BME280;56261;51.580;4.578;2023-04-20T10:00:45;101935.66;;;10.41;100.00
69153;BME280;56261;51.580;4.578;2023-04-20T10:03:10;101921.47;;;10.11;100.00
69153;BME280;56261;51.580;4.578;2023-04-20T10:05:37;101930.97;;;9.94;100.00
69153;BME280;56261;51.580;4.578;2023-04-20T10:08:05;101926.19;;;9.79;100.00
69153;BME280;56261;51.580;4.578;2023-04-20T10:10:41;101923.78;;;9.56;100.00
69153;BME280;56261;51.580;4.578;2023-04-20T10:13:06;101919.34;;;10.05;100.00
69153;BME280;56261;51.580;4.578;2023-04-20T10:15:40;101923.69;;;9.96;100.00
69153;BME280;56261;51.580;4.578;2023-04-20T10:18:19;101919.59;;;9.73;100.00
69153;BME280;56261;51.580;4.578;2023-04-20T10:20:45;101910.81;;;9.42;100.00
69153;BME280;56261;51.580;4.578;2023-04-20T10:23:11;101918.28;;;9.57;100.00
69153;BME280;56261;51.580;4.578;2023-04-20T10:25:39;101908.25;;;10.00;100.00
69153;BME280;56261;51.580;4.578;2023-04-20T10:28:04;101912.91;;;10.08;100.00
69153;BME280;56261;51.580;4.578;2023-04-20T10:30:34;101907.44;;;10.29;100.00
69153;BME280;56261;51.580;4.578;2023-04-20T10:33:10;101895.50;;;10.04;100.00
69153;BME280;56261;51.580;4.578;2023-04-20T10:35:51;101916.41;;;10.28;100.00
69153;BME280;56261;51.580;4.578;2023-04-20T10:38:28;101915.13;;;9.83;100.00
69153;BME280;56261;51.580;4.578;2023-04-20T10:40:54;101900.25;;;9.90;100.00
69153;BME280;56261;51.580;4.578;2023-04-20T10:43:21;101905.72;;;9.89;100.00
69153;BME280;56261;51.580;4.578;2023-04-20T10:45:47;101901.38;;;9.88;100.00
69153;BME280;56261;51.580;4.578;2023-04-20T10:48:13;101912.31;;;10.04;100.00
69153;BME280;56261;51.580;4.578;2023-04-20T10:50:38;101907.56;;;10.17;100.00
69153;BME280;56261;51.580;4.578;2023-04-20T10:53:04;101904.19;;;9.76;100.00
69153;BME280;56261;51.580;4.578;2023-04-20T10:55:29;101897.47;;;10.02;100.00
69153;BME280;56261;51.580;4.578;2023-04-20T10:57:56;101895.94;;;9.89;100.00
69153;BME280;56261;51.580;4.578;2023-04-20T11:00:24;101890.28;;;9.53;100.00
69153;BME280;56261;51.580;4.578;2023-04-20T11:02:52;101908.22;;;9.61;100.00
69153;BME280;56261;51.580;4.578;2023-04-20T11:05:19;101899.13;;;9.73;100.00
69153;BME280;56261;51.580;4.578;2023-04-20T11:07:55;101900.66;;;9.95;100.00
69153;BME280;56261;51.580;4.578;2023-04-20T11:10:37;101903.06;;;9.69;100.00
69153;BME280;56261;51.580;4.578;2023-04-20T11:13:02;101893.91;;;9.62;100.00
69153;BME280;56261;51.580;4.578;2023-04-20T11:15:31;101900.06;;;9.53;100.00
69153;BME280;56261;51.580;4.578;2023-04-20T11:18:07;101900.63;;;9.56;100.00
69153;BME280;56261;51.580;4.578;2023-04-20T11:20:33;101892.56;;;9.87;100.00
69153;BME280;56261;51.580;4.578;2023-04-20T11:22:58;101877.69;;;9.94;100.00
69153;BME280;56261;51.580;4.578;2023-04-20T11:25:24;101884.44;;;10.18;100.00
69153;BME280;56261;51.580;4.578;2023-04-20T11:27:51;101888.34;;;9.94;100.00
69153;BME280;56261;51.580;4.578;2023-04-20T11:30:16;101876.16;;;9.92;100.00
69153;BME280;56261;51.580;4.578;2023-04-20T11:32:42;101875.28;;;9.82;100.00
69153;BME280;56261;51.580;4.578;2023-04-20T11:35:08;101875.00;;;9.75;100.00
69153;BME280;56261;51.580;4.578;2023-04-20T11:37:50;101878.09;;;9.90;100.00
69153;BME280;56261;51.580;4.578;2023-04-20T11:40:18;101873.19;;;9.85;100.00
69153;BME280;56261;51.580;4.578;2023-04-20T11:42:43;101873.75;;;9.79;100.00
69153;BME280;56261;51.580;4.578;2023-04-20T11:45:10;101871.50;;;9.84;100.00
69153;BME280;56261;51.580;4.578;2023-04-20T11:47:36;101883.56;;;9.79;100.00
69153;BME280;56261;51.580;4.578;2023-04-20T11:50:03;101865.06;;;9.67;100.00
69153;BME280;56261;51.580;4.578;2023-04-20T11:52:28;101856.50;;;9.73;100.00
69153;BME280;56261;51.580;4.578;2023-04-20T11:54:54;101854.66;;;9.93;100.00
69153;BME280;56261;51.580;4.578;2023-04-20T11:57:19;101859.47;;;10.09;100.00
69153;BME280;56261;51.580;4.578;2023-04-20T11:59:47;101844.84;;;10.23;100.00
69153;BME280;56261;51.580;4.578;2023-04-20T12:02:13;101850.84;;;10.54;100.00
69153;BME280;56261;51.580;4.578;2023-04-20T12:04:39;101846.59;;;10.62;100.00
69153;BME280;56261;51.580;4.578;2023-04-20T12:07:05;101845.63;;;11.00;100.00
69153;BME280;56261;51.580;4.578;2023-04-20T12:09:30;101846.28;;;11.75;100.00
69153;BME280;56261;51.580;4.578;2023-04-20T12:12:00;101843.41;;;12.04;100.00
69153;BME280;56261;51.580;4.578;2023-04-20T12:14:26;101835.88;;;12.26;100.00
69153;BME280;56261;51.580;4.578;2023-04-20T12:16:51;101839.19;;;11.66;100.00
69153;BME280;56261;51.580;4.578;2023-04-20T12:19:16;101831.59;;;11.43;100.00
69153;BME280;56261;51.580;4.578;2023-04-20T12:21:42;101850.41;;;11.24;100.00
69153;BME280;56261;51.580;4.578;2023-04-20T12:24:08;101837.81;;;11.16;100.00
69153;BME280;56261;51.580;4.578;2023-04-20T12:26:33;101827.63;;;11.02;100.00
69153;BME280;56261;51.580;4.578;2023-04-20T12:29:00;101835.69;;;10.92;100.00
69153;BME280;56261;51.580;4.578;2023-04-20T12:31:29;101834.97;;;11.18;100.00
69153;BME280;56261;51.580;4.578;2023-04-20T12:33:55;101821.53;;;11.55;100.00
69153;BME280;56261;51.580;4.578;2023-04-20T12:36:20;101833.16;;;11.18;100.00
69153;BME280;56261;51.580;4.578;2023-04-20T12:38:46;101807.94;;;11.67;100.00
69153;BME280;56261;51.580;4.578;2023-04-20T12:41:14;101817.34;;;11.71;100.00
69153;BME280;56261;51.580;4.578;2023-04-20T12:43:40;101831.13;;;11.02;100.00
69153;BME280;56261;51.580;4.578;2023-04-20T12:46:06;101820.19;;;10.68;100.00